EAG5520 SKCL-SVMC
Flight info
| Callsign | EAG5520 |
|---|---|
| Flight time | N/A |
| Altitude | 35000 |
| Route | ULQ1K ULQ DCT RNG UW26 CUC UW1 ENPUT UG431 STB/N0429F230 W1 BOBAT BOBAT1 |
| Aircraft | B738/M-SDE2E3FGHIRWXY/LB1 |
Departure
| Time | N/A |
|---|---|
| Airport | Alfonso Bonilla Aragon International Airport (SKCL) |
Arrival
| Time | 2026-05-04 15:08 |
|---|---|
| Airport | La Chinita International Airport (SVMC) |
| Time | Latitude | Longitude | Altitude | Speed | Heading |
|---|---|---|---|---|---|
| 2026-05-04 15:08 | 10.55518 | -71.72564 | 232 ft | 0 kts | 59° |
| 2026-05-04 15:11 | 10.55518 | -71.72565 | 232 ft | 1 kts | 59° |
| 2026-05-04 15:11 | 10.55509 | -71.72579 | 234 ft | 3 kts | 54° |
| 2026-05-04 15:11 | 10.55496 | -71.72595 | 228 ft | 3 kts | 46° |
| 2026-05-04 15:12 | 10.55482 | -71.72610 | 230 ft | 3 kts | 38° |
| 2026-05-04 15:12 | 10.55465 | -71.72621 | 230 ft | 3 kts | 28° |
| 2026-05-04 15:12 | 10.55453 | -71.72627 | 228 ft | 1 kts | 24° |
| 2026-05-04 15:12 | 10.55450 | -71.72629 | 228 ft | 0 kts | 24° |
| 2026-05-04 15:24 | 10.55396 | -71.72653 | 230 ft | 10 kts | 24° |
| 2026-05-04 15:24 | 10.55349 | -71.72671 | 231 ft | 1 kts | 335° |
| 2026-05-04 15:25 | 10.55355 | -71.72678 | 230 ft | 0 kts | 299° |
| 2026-05-04 15:25 | 10.55358 | -71.72685 | 231 ft | 2 kts | 290° |
| 2026-05-04 15:25 | 10.55367 | -71.72709 | 226 ft | 5 kts | 291° |
| 2026-05-04 15:26 | 10.55403 | -71.72801 | 228 ft | 0 kts | 291° |
| 2026-05-04 15:26 | 10.55415 | -71.72832 | 228 ft | 5 kts | 292° |
| 2026-05-04 15:27 | 10.55417 | -71.72855 | 226 ft | 1 kts | 242° |
| 2026-05-04 15:27 | 10.55379 | -71.72877 | 228 ft | 6 kts | 204° |
| 2026-05-04 15:28 | 10.55272 | -71.72922 | 225 ft | 11 kts | 202° |
| 2026-05-04 15:28 | 10.55195 | -71.72955 | 224 ft | 13 kts | 202° |
| 2026-05-04 15:28 | 10.55024 | -71.73026 | 223 ft | 19 kts | 202° |
| 2026-05-04 15:29 | 10.54943 | -71.73061 | 219 ft | 8 kts | 202° |
| 2026-05-04 15:30 | 10.54658 | -71.73224 | 220 ft | 15 kts | 226° |
| 2026-05-04 15:30 | 10.54571 | -71.73321 | 224 ft | 0 kts | 265° |
| 2026-05-04 15:31 | 10.54582 | -71.73357 | 227 ft | 6 kts | 295° |
| 2026-05-04 15:31 | 10.54612 | -71.73391 | 226 ft | 7 kts | 335° |
| 2026-05-04 15:32 | 10.54679 | -71.73374 | 226 ft | 22 kts | 22° |
| 2026-05-04 15:32 | 10.55805 | -71.72900 | 237 ft | 144 kts | 23° |
| 2026-05-04 15:33 | 10.58032 | -71.71821 | 594 ft | 197 kts | 30° |
| 2026-05-04 15:34 | 10.62154 | -71.70343 | 2373 ft | 232 kts | 25° |
| 2026-05-04 15:34 | 10.63609 | -71.69559 | 2911 ft | 242 kts | 40° |
| 2026-05-04 15:34 | 10.64725 | -71.66531 | 4477 ft | 242 kts | 103° |
| 2026-05-04 15:35 | 10.62502 | -71.64144 | 5977 ft | 249 kts | 166° |
| 2026-05-04 15:35 | 10.60771 | -71.64199 | 6707 ft | 255 kts | 196° |
| 2026-05-04 15:35 | 10.59081 | -71.64789 | 7370 ft | 260 kts | 192° |
| 2026-05-04 15:36 | 10.55517 | -71.65602 | 8775 ft | 266 kts | 190° |
| 2026-05-04 15:36 | 10.53701 | -71.66036 | 9477 ft | 269 kts | 190° |
| 2026-05-04 15:36 | 10.51867 | -71.66482 | 10150 ft | 273 kts | 190° |
| 2026-05-04 15:37 | 10.50010 | -71.66941 | 10809 ft | 276 kts | 190° |
| 2026-05-04 15:37 | 10.48136 | -71.67409 | 11506 ft | 279 kts | 190° |
| 2026-05-04 15:37 | 10.46219 | -71.67643 | 12187 ft | 276 kts | 170° |
| 2026-05-04 15:37 | 10.44352 | -71.67203 | 12901 ft | 277 kts | 161° |
| 2026-05-04 15:38 | 10.42482 | -71.66663 | 13612 ft | 281 kts | 160° |
| 2026-05-04 15:38 | 10.40595 | -71.66093 | 14283 ft | 284 kts | 160° |
| 2026-05-04 15:38 | 10.38716 | -71.65512 | 14961 ft | 287 kts | 160° |
| 2026-05-04 15:38 | 10.36798 | -71.64909 | 15605 ft | 290 kts | 159° |
| 2026-05-04 15:39 | 10.34858 | -71.64294 | 16263 ft | 293 kts | 159° |
| 2026-05-04 15:39 | 10.32901 | -71.63669 | 16899 ft | 296 kts | 159° |
| 2026-05-04 15:39 | 10.28917 | -71.62393 | 18157 ft | 303 kts | 159° |
| 2026-05-04 15:40 | 10.26892 | -71.61744 | 18697 ft | 307 kts | 160° |
| 2026-05-04 15:40 | 10.24847 | -71.61088 | 19202 ft | 310 kts | 160° |
| 2026-05-04 15:40 | 10.22772 | -71.60423 | 19714 ft | 314 kts | 160° |
| 2026-05-04 15:40 | 10.20676 | -71.59751 | 20220 ft | 317 kts | 161° |
| 2026-05-04 15:41 | 10.18587 | -71.59081 | 20708 ft | 321 kts | 161° |
| 2026-05-04 15:41 | 10.16568 | -71.58136 | 21182 ft | 321 kts | 143° |
| 2026-05-04 15:41 | 10.14960 | -71.56563 | 21666 ft | 323 kts | 125° |
| 2026-05-04 15:41 | 10.13845 | -71.54575 | 22098 ft | 326 kts | 115° |
| 2026-05-04 15:42 | 10.12883 | -71.52467 | 22540 ft | 330 kts | 113° |
| 2026-05-04 15:42 | 10.11966 | -71.50317 | 23001 ft | 334 kts | 112° |
| 2026-05-04 15:42 | 10.11071 | -71.48127 | 23425 ft | 338 kts | 111° |
| 2026-05-04 15:42 | 10.10178 | -71.45894 | 23791 ft | 342 kts | 111° |
| 2026-05-04 15:43 | 10.09288 | -71.43641 | 24170 ft | 345 kts | 111° |
| 2026-05-04 15:43 | 10.08400 | -71.41373 | 24545 ft | 347 kts | 111° |
| 2026-05-04 15:43 | 10.07483 | -71.39091 | 24906 ft | 350 kts | 115° |
| 2026-05-04 15:43 | 10.06085 | -71.37070 | 25250 ft | 352 kts | 135° |
| 2026-05-04 15:44 | 10.04188 | -71.35536 | 25607 ft | 355 kts | 144° |
| 2026-05-04 15:44 | 10.02166 | -71.34083 | 25906 ft | 358 kts | 145° |
| 2026-05-04 15:44 | 10.00097 | -71.32644 | 26257 ft | 361 kts | 146° |
| 2026-05-04 15:44 | 9.98003 | -71.31213 | 26574 ft | 364 kts | 146° |
| 2026-05-04 15:45 | 9.95862 | -71.29766 | 26654 ft | 376 kts | 147° |
| 2026-05-04 15:45 | 9.93641 | -71.28274 | 26672 ft | 389 kts | 147° |
| 2026-05-04 15:45 | 9.91341 | -71.26735 | 26708 ft | 401 kts | 147° |
| 2026-05-04 15:45 | 9.88971 | -71.25150 | 26745 ft | 414 kts | 147° |
| 2026-05-04 15:46 | 9.86537 | -71.23524 | 26771 ft | 425 kts | 147° |
| 2026-05-04 15:46 | 9.84035 | -71.21852 | 26809 ft | 436 kts | 147° |
| 2026-05-04 15:46 | 9.81467 | -71.20137 | 26846 ft | 446 kts | 147° |
| 2026-05-04 15:46 | 9.78986 | -71.18307 | 27213 ft | 446 kts | 139° |
| 2026-05-04 15:47 | 9.76603 | -71.16279 | 27510 ft | 449 kts | 140° |
| 2026-05-04 15:47 | 9.74178 | -71.14265 | 27824 ft | 451 kts | 141° |
| 2026-05-04 15:47 | 9.71735 | -71.12257 | 28136 ft | 453 kts | 141° |
| 2026-05-04 15:47 | 9.69272 | -71.10243 | 28432 ft | 456 kts | 141° |
| 2026-05-04 15:48 | 9.66800 | -71.08224 | 28746 ft | 458 kts | 141° |
| 2026-05-04 15:48 | 9.64307 | -71.06190 | 29042 ft | 460 kts | 141° |
| 2026-05-04 15:48 | 9.59297 | -71.02103 | 29633 ft | 464 kts | 141° |
| 2026-05-04 15:49 | 9.56773 | -71.00045 | 29927 ft | 467 kts | 141° |
| 2026-05-04 15:49 | 9.54228 | -70.97971 | 30176 ft | 469 kts | 141° |
| 2026-05-04 15:49 | 9.51684 | -70.95897 | 30431 ft | 471 kts | 141° |
| 2026-05-04 15:49 | 9.49127 | -70.93812 | 30686 ft | 472 kts | 141° |
| 2026-05-04 15:50 | 9.46589 | -70.91745 | 30929 ft | 474 kts | 141° |
| 2026-05-04 15:50 | 9.44014 | -70.89647 | 31168 ft | 476 kts | 141° |
| 2026-05-04 15:50 | 9.41432 | -70.87535 | 31402 ft | 478 kts | 141° |
| 2026-05-04 15:50 | 9.38839 | -70.85410 | 31634 ft | 480 kts | 141° |
| 2026-05-04 15:51 | 9.36237 | -70.83277 | 31857 ft | 482 kts | 141° |
| 2026-05-04 15:51 | 9.33625 | -70.81137 | 32006 ft | 485 kts | 141° |
| 2026-05-04 15:51 | 9.28379 | -70.76838 | 32037 ft | 484 kts | 141° |
| 2026-05-04 15:52 | 9.23154 | -70.72535 | 32067 ft | 484 kts | 141° |
| 2026-05-04 15:52 | 9.17927 | -70.68233 | 32076 ft | 484 kts | 141° |
| 2026-05-04 15:53 | 9.12696 | -70.63931 | 32111 ft | 485 kts | 141° |
| 2026-05-04 15:53 | 9.07463 | -70.59629 | 32125 ft | 484 kts | 141° |
| 2026-05-04 15:54 | 9.02226 | -70.55325 | 32121 ft | 484 kts | 141° |
| 2026-05-04 15:54 | 8.97001 | -70.51032 | 32118 ft | 484 kts | 141° |
| 2026-05-04 15:55 | 8.91807 | -70.46767 | 32104 ft | 484 kts | 142° |
| 2026-05-04 15:55 | 8.86580 | -70.42476 | 32091 ft | 484 kts | 141° |
| 2026-05-04 15:56 | 8.81360 | -70.38192 | 32072 ft | 482 kts | 141° |
| 2026-05-04 15:56 | 8.76120 | -70.33894 | 32053 ft | 481 kts | 141° |
| 2026-05-04 15:57 | 8.70962 | -70.29665 | 32034 ft | 480 kts | 141° |
| 2026-05-04 15:57 | 8.65769 | -70.25408 | 32023 ft | 480 kts | 141° |
| 2026-05-04 15:58 | 8.60604 | -70.21121 | 32009 ft | 480 kts | 140° |
| 2026-05-04 15:58 | 8.55487 | -70.16777 | 32006 ft | 480 kts | 141° |
| 2026-05-04 15:59 | 8.50372 | -70.12446 | 32000 ft | 480 kts | 141° |
| 2026-05-04 15:59 | 8.45250 | -70.08112 | 31995 ft | 480 kts | 141° |
| 2026-05-04 16:00 | 8.40156 | -70.03803 | 31994 ft | 480 kts | 141° |
| 2026-05-04 16:00 | 8.35035 | -69.99473 | 31994 ft | 480 kts | 141° |
| 2026-05-04 16:01 | 8.29917 | -69.95146 | 31995 ft | 480 kts | 141° |
| 2026-05-04 16:01 | 8.24797 | -69.90821 | 31992 ft | 479 kts | 141° |
| 2026-05-04 16:02 | 8.19678 | -69.86497 | 31991 ft | 479 kts | 141° |
| 2026-05-04 16:03 | 8.12000 | -69.80014 | 31993 ft | 479 kts | 141° |
| 2026-05-04 16:03 | 8.06885 | -69.75697 | 31988 ft | 479 kts | 141° |
| 2026-05-04 16:04 | 8.01802 | -69.71408 | 31995 ft | 479 kts | 141° |
| 2026-05-04 16:04 | 7.94126 | -69.64936 | 31991 ft | 479 kts | 141° |
| 2026-05-04 16:05 | 7.89018 | -69.60630 | 31999 ft | 479 kts | 141° |
| 2026-05-04 16:06 | 7.81354 | -69.54172 | 31999 ft | 478 kts | 141° |
| 2026-05-04 16:07 | 7.71150 | -69.45579 | 32002 ft | 477 kts | 141° |
| 2026-05-04 16:08 | 7.60996 | -69.37034 | 32000 ft | 477 kts | 141° |
| 2026-05-04 16:09 | 7.48266 | -69.26327 | 31999 ft | 476 kts | 141° |
| 2026-05-04 16:10 | 7.38085 | -69.17771 | 32005 ft | 476 kts | 141° |
| 2026-05-04 16:11 | 7.27956 | -69.09264 | 32003 ft | 475 kts | 141° |
| 2026-05-04 16:12 | 7.12711 | -68.96469 | 32000 ft | 475 kts | 141° |
| 2026-05-04 16:13 | 7.02549 | -68.87945 | 32001 ft | 475 kts | 141° |
| 2026-05-04 16:14 | 6.92386 | -68.79427 | 31998 ft | 474 kts | 141° |
| 2026-05-04 16:16 | 6.79749 | -68.68842 | 31996 ft | 474 kts | 141° |
| 2026-05-04 16:17 | 6.67913 | -68.58935 | 31992 ft | 473 kts | 141° |
| 2026-05-04 16:18 | 6.57804 | -68.50478 | 31994 ft | 472 kts | 141° |
| 2026-05-04 16:19 | 6.45213 | -68.39951 | 31989 ft | 471 kts | 141° |
| 2026-05-04 16:20 | 6.32622 | -68.29432 | 31991 ft | 470 kts | 140° |
| 2026-05-04 16:22 | 6.20037 | -68.18924 | 31993 ft | 470 kts | 140° |
| 2026-05-04 16:23 | 6.05978 | -68.05282 | 31989 ft | 469 kts | 135° |
| 2026-05-04 16:25 | 5.92085 | -67.91416 | 31985 ft | 469 kts | 135° |
| 2026-05-04 16:26 | 5.75911 | -67.75288 | 31985 ft | 468 kts | 135° |
| 2026-05-04 16:28 | 5.64401 | -67.63820 | 31985 ft | 466 kts | 135° |
| 2026-05-04 16:29 | 5.48478 | -67.47637 | 31984 ft | 465 kts | 135° |
| 2026-05-04 16:31 | 5.37194 | -67.36152 | 31988 ft | 465 kts | 134° |
| 2026-05-04 16:32 | 5.23562 | -67.22286 | 31998 ft | 465 kts | 134° |
| 2026-05-04 16:33 | 5.14466 | -67.13038 | 32010 ft | 465 kts | 134° |
| 2026-05-04 16:34 | 5.07651 | -67.06112 | 32019 ft | 465 kts | 134° |
| 2026-05-04 16:35 | 4.94037 | -66.92283 | 32029 ft | 465 kts | 134° |
| 2026-05-04 16:36 | 4.87203 | -66.85344 | 32022 ft | 465 kts | 134° |
| 2026-05-04 16:37 | 4.80373 | -66.78412 | 32029 ft | 466 kts | 134° |
| 2026-05-04 16:38 | 4.71273 | -66.69178 | 32020 ft | 466 kts | 134° |
| 2026-05-04 16:39 | 4.59874 | -66.57617 | 31996 ft | 466 kts | 134° |
| 2026-05-04 16:40 | 4.50758 | -66.48376 | 31989 ft | 466 kts | 134° |
| 2026-05-04 16:41 | 4.39339 | -66.36818 | 31978 ft | 467 kts | 134° |
| 2026-05-04 16:43 | 4.27922 | -66.25283 | 31979 ft | 467 kts | 135° |
| 2026-05-04 16:43 | 4.21085 | -66.18373 | 31983 ft | 467 kts | 134° |
| 2026-05-04 16:45 | 4.07310 | -66.04462 | 31986 ft | 468 kts | 134° |
| 2026-05-04 16:46 | 3.95881 | -65.92926 | 31989 ft | 467 kts | 134° |
| 2026-05-04 16:47 | 3.86728 | -65.83691 | 32000 ft | 466 kts | 134° |
| 2026-05-04 16:48 | 3.77593 | -65.74476 | 32007 ft | 466 kts | 134° |
| 2026-05-04 16:49 | 3.68500 | -65.65307 | 32014 ft | 464 kts | 134° |
| 2026-05-04 16:50 | 3.59389 | -65.56123 | 32019 ft | 464 kts | 134° |
| 2026-05-04 16:51 | 3.52558 | -65.49239 | 32016 ft | 464 kts | 134° |
| 2026-05-04 16:52 | 3.43509 | -65.40123 | 32007 ft | 463 kts | 135° |
| 2026-05-04 16:53 | 3.36687 | -65.33251 | 31993 ft | 463 kts | 135° |
| 2026-05-04 16:54 | 3.27603 | -65.24103 | 31981 ft | 463 kts | 135° |
| 2026-05-04 16:55 | 3.13998 | -65.10408 | 31975 ft | 462 kts | 135° |
| 2026-05-04 16:56 | 3.02681 | -64.99019 | 31971 ft | 461 kts | 135° |
| 2026-05-04 16:57 | 2.95890 | -64.92187 | 31971 ft | 462 kts | 134° |
| 2026-05-04 16:58 | 2.86867 | -64.83111 | 31970 ft | 461 kts | 134° |
| 2026-05-04 17:00 | 2.73286 | -64.69455 | 31976 ft | 461 kts | 134° |
| 2026-05-04 17:01 | 2.61992 | -64.58102 | 31975 ft | 460 kts | 134° |
| 2026-05-04 17:02 | 2.52978 | -64.49043 | 31978 ft | 461 kts | 134° |
| 2026-05-04 17:03 | 2.46955 | -64.42991 | 31972 ft | 461 kts | 134° |
| 2026-05-04 17:03 | 2.40170 | -64.36175 | 31974 ft | 461 kts | 134° |
| 2026-05-04 17:04 | 2.31132 | -64.27096 | 31979 ft | 460 kts | 134° |
| 2026-05-04 17:05 | 2.22096 | -64.18022 | 31974 ft | 460 kts | 134° |
| 2026-05-04 17:06 | 2.15353 | -64.11249 | 31975 ft | 459 kts | 134° |
| 2026-05-04 17:07 | 2.09326 | -64.05199 | 31974 ft | 459 kts | 134° |
| 2026-05-04 17:07 | 2.04085 | -63.99938 | 31978 ft | 459 kts | 134° |
| 2026-05-04 17:08 | 1.97102 | -63.93408 | 31981 ft | 459 kts | 142° |
| 2026-05-04 17:09 | 1.92010 | -63.89543 | 31981 ft | 460 kts | 142° |
| 2026-05-04 17:09 | 1.86910 | -63.85680 | 31976 ft | 460 kts | 142° |
| 2026-05-04 17:10 | 1.74176 | -63.76042 | 31975 ft | 462 kts | 142° |
| 2026-05-04 17:11 | 1.69061 | -63.72171 | 31977 ft | 462 kts | 142° |
| 2026-05-04 17:12 | 1.61385 | -63.66362 | 31974 ft | 462 kts | 142° |
| 2026-05-04 17:13 | 1.48570 | -63.56665 | 31973 ft | 462 kts | 142° |
| 2026-05-04 17:14 | 1.38322 | -63.48912 | 31978 ft | 461 kts | 142° |
| 2026-05-04 17:15 | 1.30679 | -63.43130 | 31983 ft | 461 kts | 142° |
| 2026-05-04 17:16 | 1.20436 | -63.35369 | 31983 ft | 462 kts | 141° |
| 2026-05-04 17:17 | 1.10306 | -63.27483 | 31983 ft | 462 kts | 141° |
| 2026-05-04 17:18 | 1.00143 | -63.19583 | 31981 ft | 463 kts | 141° |
| 2026-05-04 17:19 | 0.90022 | -63.11716 | 31976 ft | 463 kts | 141° |
| 2026-05-04 17:20 | 0.79861 | -63.03818 | 31972 ft | 462 kts | 141° |
| 2026-05-04 17:20 | 0.72241 | -62.97897 | 31971 ft | 462 kts | 141° |
| 2026-05-04 17:21 | 0.62082 | -62.90003 | 31965 ft | 462 kts | 141° |
| 2026-05-04 17:22 | 0.57001 | -62.86053 | 31966 ft | 462 kts | 141° |
| 2026-05-04 17:23 | 0.46879 | -62.78188 | 31960 ft | 462 kts | 141° |
| 2026-05-04 17:24 | 0.39273 | -62.72278 | 31960 ft | 462 kts | 141° |
| 2026-05-04 17:25 | 0.29133 | -62.64398 | 31959 ft | 462 kts | 141° |
| 2026-05-04 17:26 | 0.18993 | -62.56520 | 31955 ft | 462 kts | 141° |
| 2026-05-04 17:27 | 0.06301 | -62.46658 | 31950 ft | 462 kts | 141° |
| 2026-05-04 17:28 | -0.03850 | -62.38771 | 31948 ft | 461 kts | 141° |
| 2026-05-04 17:29 | -0.19038 | -62.26970 | 31954 ft | 462 kts | 141° |
| 2026-05-04 17:31 | -0.31739 | -62.17101 | 31949 ft | 463 kts | 141° |
| 2026-05-04 17:32 | -0.44450 | -62.07224 | 31948 ft | 463 kts | 141° |
| 2026-05-04 17:33 | -0.54633 | -61.99312 | 31939 ft | 463 kts | 141° |
| 2026-05-04 17:34 | -0.64773 | -61.91432 | 31949 ft | 463 kts | 141° |
| 2026-05-04 17:35 | -0.77500 | -61.81541 | 31938 ft | 463 kts | 141° |
| 2026-05-04 17:36 | -0.82587 | -61.77588 | 31942 ft | 463 kts | 141° |
| 2026-05-04 17:36 | -0.87676 | -61.73632 | 31940 ft | 463 kts | 141° |
| 2026-05-04 17:37 | -0.92728 | -61.69706 | 31944 ft | 463 kts | 141° |
| 2026-05-04 17:37 | -0.97813 | -61.65754 | 31941 ft | 463 kts | 141° |
| 2026-05-04 17:38 | -1.02906 | -61.61795 | 31948 ft | 463 kts | 141° |
| 2026-05-04 17:38 | -1.07990 | -61.57842 | 31937 ft | 463 kts | 141° |
| 2026-05-04 17:39 | -1.15611 | -61.51918 | 31945 ft | 462 kts | 141° |
| 2026-05-04 17:39 | -1.20657 | -61.47995 | 31948 ft | 463 kts | 141° |
| 2026-05-04 17:40 | -1.25729 | -61.44052 | 31943 ft | 462 kts | 141° |
| 2026-05-04 17:40 | -1.30818 | -61.40095 | 31939 ft | 462 kts | 141° |
| 2026-05-04 17:41 | -1.35894 | -61.36148 | 31948 ft | 462 kts | 141° |
| 2026-05-04 17:41 | -1.40978 | -61.32195 | 31947 ft | 462 kts | 141° |
| 2026-05-04 17:42 | -1.46055 | -61.28247 | 31940 ft | 462 kts | 142° |
| 2026-05-04 17:42 | -1.51129 | -61.24301 | 31948 ft | 462 kts | 142° |
| 2026-05-04 17:43 | -1.56207 | -61.20353 | 31948 ft | 462 kts | 142° |
| 2026-05-04 17:43 | -1.58733 | -61.18388 | 31622 ft | 457 kts | 142° |
| 2026-05-04 17:43 | -1.61306 | -61.16498 | 30684 ft | 463 kts | 148° |
| 2026-05-04 17:44 | -1.64087 | -61.14820 | 29674 ft | 469 kts | 148° |
| 2026-05-04 17:44 | -1.66899 | -61.13129 | 28801 ft | 470 kts | 148° |
| 2026-05-04 17:44 | -1.69651 | -61.11482 | 28303 ft | 463 kts | 148° |
| 2026-05-04 17:44 | -1.72390 | -61.09843 | 27771 ft | 457 kts | 148° |
| 2026-05-04 17:45 | -1.75113 | -61.08214 | 27169 ft | 453 kts | 148° |
| 2026-05-04 17:45 | -1.77810 | -61.06601 | 26586 ft | 450 kts | 148° |
| 2026-05-04 17:45 | -1.80489 | -61.04999 | 26005 ft | 447 kts | 148° |
| 2026-05-04 17:45 | -1.83152 | -61.03406 | 25432 ft | 444 kts | 148° |
| 2026-05-04 17:46 | -1.85796 | -61.01824 | 24862 ft | 442 kts | 148° |
| 2026-05-04 17:46 | -1.88425 | -61.00252 | 24296 ft | 439 kts | 148° |
| 2026-05-04 17:46 | -1.91046 | -60.98684 | 23736 ft | 437 kts | 148° |
| 2026-05-04 17:46 | -1.93649 | -60.97127 | 23112 ft | 436 kts | 148° |
| 2026-05-04 17:47 | -1.96242 | -60.95576 | 22515 ft | 432 kts | 148° |
| 2026-05-04 17:47 | -1.98810 | -60.94040 | 21973 ft | 428 kts | 148° |
| 2026-05-04 17:47 | -2.01351 | -60.92520 | 21450 ft | 424 kts | 148° |
| 2026-05-04 17:47 | -2.03882 | -60.91005 | 20943 ft | 421 kts | 148° |
| 2026-05-04 17:48 | -2.06387 | -60.89507 | 20414 ft | 419 kts | 148° |
| 2026-05-04 17:48 | -2.08850 | -60.88033 | 19920 ft | 416 kts | 148° |
| 2026-05-04 17:48 | -2.11320 | -60.86555 | 19434 ft | 412 kts | 148° |
| 2026-05-04 17:48 | -2.13772 | -60.85088 | 18953 ft | 409 kts | 148° |
| 2026-05-04 17:49 | -2.16209 | -60.83630 | 18474 ft | 407 kts | 148° |
| 2026-05-04 17:49 | -2.18631 | -60.82180 | 17967 ft | 404 kts | 148° |
| 2026-05-04 17:49 | -2.21036 | -60.80741 | 17457 ft | 401 kts | 148° |
| 2026-05-04 17:49 | -2.23418 | -60.79315 | 16990 ft | 397 kts | 148° |
| 2026-05-04 17:50 | -2.25777 | -60.77904 | 16534 ft | 393 kts | 148° |
| 2026-05-04 17:50 | -2.28112 | -60.76506 | 16099 ft | 389 kts | 148° |
| 2026-05-04 17:50 | -2.30432 | -60.75117 | 15663 ft | 386 kts | 148° |
| 2026-05-04 17:50 | -2.31954 | -60.74207 | 15375 ft | 384 kts | 148° |
| 2026-05-04 17:51 | -2.34235 | -60.72841 | 14938 ft | 381 kts | 148° |
| 2026-05-04 17:51 | -2.36506 | -60.71481 | 14512 ft | 379 kts | 148° |
| 2026-05-04 17:51 | -2.38759 | -60.70133 | 14086 ft | 376 kts | 147° |
| 2026-05-04 17:51 | -2.41001 | -60.68791 | 13649 ft | 374 kts | 147° |
| 2026-05-04 17:52 | -2.43229 | -60.67457 | 13182 ft | 372 kts | 147° |
| 2026-05-04 17:52 | -2.45439 | -60.66133 | 12747 ft | 369 kts | 147° |
| 2026-05-04 17:52 | -2.47629 | -60.64822 | 12329 ft | 365 kts | 147° |
| 2026-05-04 17:52 | -2.49803 | -60.63521 | 11917 ft | 362 kts | 147° |
| 2026-05-04 17:53 | -2.51956 | -60.62232 | 11506 ft | 359 kts | 147° |
| 2026-05-04 17:53 | -2.54094 | -60.60952 | 11112 ft | 356 kts | 147° |
| 2026-05-04 17:53 | -2.56195 | -60.59694 | 10923 ft | 347 kts | 147° |
| 2026-05-04 17:53 | -2.58240 | -60.58469 | 10757 ft | 337 kts | 147° |
| 2026-05-04 17:54 | -2.60226 | -60.57280 | 10597 ft | 328 kts | 147° |
| 2026-05-04 17:54 | -2.62138 | -60.56135 | 10449 ft | 319 kts | 147° |
| 2026-05-04 17:54 | -2.64015 | -60.55011 | 10295 ft | 310 kts | 146° |
| 2026-05-04 17:54 | -2.65842 | -60.53917 | 10158 ft | 302 kts | 146° |
| 2026-05-04 17:55 | -2.67625 | -60.52849 | 9979 ft | 295 kts | 146° |
| 2026-05-04 17:55 | -2.69382 | -60.51796 | 9666 ft | 294 kts | 146° |
| 2026-05-04 17:55 | -2.71138 | -60.50744 | 9341 ft | 293 kts | 146° |
| 2026-05-04 17:55 | -2.72886 | -60.49698 | 9026 ft | 291 kts | 146° |
| 2026-05-04 17:56 | -2.74624 | -60.48657 | 8718 ft | 290 kts | 147° |
| 2026-05-04 17:56 | -2.76342 | -60.47627 | 8423 ft | 287 kts | 146° |
| 2026-05-04 17:56 | -2.78056 | -60.46600 | 8122 ft | 285 kts | 146° |
| 2026-05-04 17:56 | -2.79754 | -60.45583 | 7826 ft | 284 kts | 147° |
| 2026-05-04 17:57 | -2.81441 | -60.44573 | 7536 ft | 282 kts | 147° |
| 2026-05-04 17:57 | -2.83116 | -60.43569 | 7247 ft | 280 kts | 147° |
| 2026-05-04 17:57 | -2.84783 | -60.42570 | 6955 ft | 279 kts | 147° |
| 2026-05-04 17:57 | -2.86417 | -60.41592 | 6670 ft | 278 kts | 147° |
| 2026-05-04 17:58 | -2.88073 | -60.40599 | 6373 ft | 276 kts | 147° |
| 2026-05-04 17:58 | -2.89718 | -60.39614 | 6072 ft | 275 kts | 147° |
| 2026-05-04 17:58 | -2.91360 | -60.38629 | 5771 ft | 274 kts | 147° |
| 2026-05-04 17:58 | -2.92977 | -60.37660 | 5481 ft | 273 kts | 147° |
| 2026-05-04 17:59 | -2.94581 | -60.36700 | 5230 ft | 263 kts | 146° |
| 2026-05-04 17:59 | -2.96113 | -60.35781 | 4991 ft | 251 kts | 146° |
| 2026-05-04 17:59 | -2.98927 | -60.34095 | 4667 ft | 216 kts | 146° |
| 2026-05-04 18:00 | -3.00160 | -60.33356 | 4547 ft | 198 kts | 146° |
| 2026-05-04 18:00 | -3.01290 | -60.32679 | 4438 ft | 181 kts | 145° |
| 2026-05-04 18:00 | -3.02325 | -60.32059 | 4326 ft | 170 kts | 145° |
| 2026-05-04 18:00 | -3.03177 | -60.31254 | 4237 ft | 171 kts | 112° |
| 2026-05-04 18:01 | -3.03495 | -60.30118 | 4205 ft | 172 kts | 96° |
| 2026-05-04 18:01 | -3.03648 | -60.28933 | 4134 ft | 169 kts | 92° |
| 2026-05-04 18:01 | -3.03733 | -60.27776 | 4002 ft | 164 kts | 90° |
| 2026-05-04 18:02 | -3.03797 | -60.25596 | 3744 ft | 149 kts | 89° |
| 2026-05-04 18:02 | -3.03808 | -60.24574 | 3626 ft | 145 kts | 88° |
| 2026-05-04 18:02 | -3.03820 | -60.23572 | 3543 ft | 144 kts | 88° |
| 2026-05-04 18:02 | -3.03838 | -60.22570 | 3424 ft | 144 kts | 89° |
| 2026-05-04 18:03 | -3.03848 | -60.21573 | 3217 ft | 143 kts | 88° |
| 2026-05-04 18:03 | -3.03854 | -60.20580 | 3025 ft | 142 kts | 88° |
| 2026-05-04 18:03 | -3.03860 | -60.19590 | 2837 ft | 142 kts | 88° |
| 2026-05-04 18:03 | -3.03867 | -60.18602 | 2661 ft | 141 kts | 88° |
| 2026-05-04 18:04 | -3.03872 | -60.17621 | 2468 ft | 141 kts | 88° |
| 2026-05-04 18:04 | -3.03877 | -60.16640 | 2264 ft | 141 kts | 88° |
| 2026-05-04 18:04 | -3.03874 | -60.14691 | 1873 ft | 143 kts | 88° |
| 2026-05-04 18:05 | -3.03880 | -60.13701 | 1711 ft | 142 kts | 88° |
| 2026-05-04 18:05 | -3.03886 | -60.12707 | 1631 ft | 143 kts | 88° |
| 2026-05-04 18:05 | -3.03884 | -60.11716 | 1626 ft | 142 kts | 88° |
| 2026-05-04 18:05 | -3.03887 | -60.10720 | 1449 ft | 143 kts | 89° |
| 2026-05-04 18:06 | -3.03868 | -60.08731 | 756 ft | 143 kts | 90° |
| 2026-05-04 18:06 | -3.03854 | -60.07727 | 601 ft | 146 kts | 89° |
| 2026-05-04 18:06 | -3.03853 | -60.06705 | 405 ft | 147 kts | 91° |
| 2026-05-04 18:07 | -3.03861 | -60.05665 | 285 ft | 147 kts | 91° |
| 2026-05-04 18:07 | -3.03860 | -60.04933 | 271 ft | 66 kts | 90° |
| 2026-05-04 18:07 | -3.03861 | -60.04571 | 272 ft | 46 kts | 90° |
| 2026-05-04 18:07 | -3.03862 | -60.04251 | 272 ft | 46 kts | 90° |
| 2026-05-04 18:08 | -3.03862 | -60.03963 | 271 ft | 35 kts | 90° |
| 2026-05-04 18:08 | -3.03836 | -60.03791 | 271 ft | 17 kts | 45° |
| 2026-05-04 18:08 | -3.03772 | -60.03768 | 271 ft | 0 kts | 353° |
| 2026-05-04 18:12 | -3.03768 | -60.03769 | 271 ft | 2 kts | 353° |
| 2026-05-04 18:12 | -3.03740 | -60.03776 | 271 ft | 6 kts | 340° |
| 2026-05-04 18:13 | -3.03698 | -60.03815 | 271 ft | 11 kts | 303° |
| 2026-05-04 18:13 | -3.03668 | -60.03901 | 271 ft | 16 kts | 285° |
| 2026-05-04 18:13 | -3.03599 | -60.04156 | 271 ft | 20 kts | 285° |
| 2026-05-04 18:14 | -3.03540 | -60.04281 | 271 ft | 18 kts | 307° |
| 2026-05-04 18:14 | -3.03446 | -60.04355 | 271 ft | 17 kts | 334° |
| 2026-05-04 18:14 | -3.03344 | -60.04397 | 271 ft | 13 kts | 306° |
| 2026-05-04 18:15 | -3.03331 | -60.04480 | 271 ft | 2 kts | 337° |
| 2026-05-04 18:15 | -3.03274 | -60.04496 | 271 ft | 5 kts | 349° |
| 2026-05-04 18:15 | -3.03260 | -60.04498 | 271 ft | 0 kts | 349° |